CTV776 WARR-WIDD
Flight info
| Callsign | CTV776 |
|---|---|
| Flight time | 1h 55m |
| Altitude | 34000 |
| Route | RAMPY M635 SURGA T23 UGEBO |
| Aircraft | A320/M-SDE3FGHIRWY/LB1 |
Departure
| Time | 2026-04-26 02:38 |
|---|---|
| Airport | Juanda International Airport (WARR) |
Arrival
| Time | 2026-04-26 04:34 |
|---|---|
| Airport | Hang Nadim International Airport (WIDD) |
| Time | Latitude | Longitude | Altitude | Speed | Heading |
|---|---|---|---|---|---|
| 2026-04-26 02:21 | -7.37616 | 112.79647 | 9 ft | 0 kts | 9° |
| 2026-04-26 02:24 | -7.37617 | 112.79646 | 9 ft | 2 kts | 9° |
| 2026-04-26 02:25 | -7.37641 | 112.79642 | 12 ft | 4 kts | 9° |
| 2026-04-26 02:25 | -7.37667 | 112.79638 | 11 ft | 2 kts | 9° |
| 2026-04-26 02:25 | -7.37689 | 112.79636 | 11 ft | 4 kts | 345° |
| 2026-04-26 02:25 | -7.37709 | 112.79650 | 10 ft | 4 kts | 288° |
| 2026-04-26 02:26 | -7.37711 | 112.79658 | 10 ft | 0 kts | 279° |
| 2026-04-26 02:29 | -7.37708 | 112.79636 | 10 ft | 6 kts | 279° |
| 2026-04-26 02:30 | -7.37697 | 112.79572 | 9 ft | 7 kts | 279° |
| 2026-04-26 02:30 | -7.37689 | 112.79517 | 9 ft | 8 kts | 279° |
| 2026-04-26 02:30 | -7.37681 | 112.79462 | 9 ft | 7 kts | 270° |
| 2026-04-26 02:30 | -7.37706 | 112.79451 | 9 ft | 3 kts | 194° |
| 2026-04-26 02:31 | -7.37724 | 112.79447 | 9 ft | 3 kts | 194° |
| 2026-04-26 02:31 | -7.37763 | 112.79437 | 9 ft | 9 kts | 190° |
| 2026-04-26 02:31 | -7.37845 | 112.79426 | 9 ft | 14 kts | 189° |
| 2026-04-26 02:31 | -7.37921 | 112.79370 | 9 ft | 16 kts | 266° |
| 2026-04-26 02:32 | -7.37908 | 112.79296 | 9 ft | 16 kts | 280° |
| 2026-04-26 02:32 | -7.37885 | 112.79160 | 9 ft | 13 kts | 279° |
| 2026-04-26 02:32 | -7.37871 | 112.79074 | 9 ft | 12 kts | 279° |
| 2026-04-26 02:32 | -7.37863 | 112.79023 | 10 ft | 10 kts | 279° |
| 2026-04-26 02:33 | -7.37849 | 112.78937 | 11 ft | 8 kts | 279° |
| 2026-04-26 02:33 | -7.37843 | 112.78900 | 9 ft | 7 kts | 279° |
| 2026-04-26 02:33 | -7.37833 | 112.78839 | 9 ft | 6 kts | 279° |
| 2026-04-26 02:33 | -7.37824 | 112.78783 | 9 ft | 12 kts | 279° |
| 2026-04-26 02:34 | -7.37805 | 112.78674 | 9 ft | 19 kts | 279° |
| 2026-04-26 02:34 | -7.37779 | 112.78515 | 9 ft | 26 kts | 279° |
| 2026-04-26 02:34 | -7.37759 | 112.78383 | 9 ft | 31 kts | 279° |
| 2026-04-26 02:34 | -7.37724 | 112.78164 | 9 ft | 32 kts | 279° |
| 2026-04-26 02:35 | -7.37687 | 112.77940 | 9 ft | 33 kts | 279° |
| 2026-04-26 02:35 | -7.37652 | 112.77712 | 9 ft | 33 kts | 279° |
| 2026-04-26 02:35 | -7.37615 | 112.77482 | 9 ft | 26 kts | 279° |
| 2026-04-26 02:35 | -7.37618 | 112.77408 | 8 ft | 9 kts | 247° |
| 2026-04-26 02:36 | -7.37663 | 112.77381 | 8 ft | 7 kts | 187° |
| 2026-04-26 02:36 | -7.37708 | 112.77375 | 8 ft | 6 kts | 187° |
| 2026-04-26 02:36 | -7.37741 | 112.77371 | 8 ft | 4 kts | 187° |
| 2026-04-26 02:36 | -7.37759 | 112.77368 | 9 ft | 3 kts | 187° |
| 2026-04-26 02:37 | -7.37772 | 112.77372 | 10 ft | 1 kts | 146° |
| 2026-04-26 02:37 | -7.37774 | 112.77378 | 9 ft | 1 kts | 95° |
| 2026-04-26 02:37 | -7.37774 | 112.77381 | 9 ft | 0 kts | 93° |
| 2026-04-26 02:38 | -7.37802 | 112.77568 | 9 ft | 64 kts | 99° |
| 2026-04-26 02:38 | -7.37908 | 112.78222 | 10 ft | 124 kts | 99° |
| 2026-04-26 02:38 | -7.38073 | 112.79243 | 58 ft | 165 kts | 99° |
| 2026-04-26 02:38 | -7.38255 | 112.80352 | 746 ft | 160 kts | 99° |
| 2026-04-26 02:39 | -7.38439 | 112.81467 | 1386 ft | 162 kts | 99° |
| 2026-04-26 02:39 | -7.38629 | 112.82619 | 1918 ft | 175 kts | 98° |
| 2026-04-26 02:39 | -7.38833 | 112.83896 | 2205 ft | 195 kts | 99° |
| 2026-04-26 02:39 | -7.39067 | 112.85316 | 2454 ft | 217 kts | 99° |
| 2026-04-26 02:40 | -7.39321 | 112.86907 | 2760 ft | 242 kts | 98° |
| 2026-04-26 02:40 | -7.39596 | 112.88643 | 3237 ft | 259 kts | 98° |
| 2026-04-26 02:40 | -7.39883 | 112.90453 | 3975 ft | 264 kts | 98° |
| 2026-04-26 02:40 | -7.39816 | 112.92300 | 4713 ft | 268 kts | 73° |
| 2026-04-26 02:41 | -7.38923 | 112.93960 | 5445 ft | 273 kts | 54° |
| 2026-04-26 02:41 | -7.37777 | 112.95502 | 6230 ft | 276 kts | 53° |
| 2026-04-26 02:41 | -7.36611 | 112.97052 | 6954 ft | 279 kts | 53° |
| 2026-04-26 02:41 | -7.35432 | 112.98611 | 7680 ft | 282 kts | 53° |
| 2026-04-26 02:42 | -7.34240 | 113.00191 | 8407 ft | 285 kts | 54° |
| 2026-04-26 02:42 | -7.33055 | 113.01769 | 9115 ft | 288 kts | 54° |
| 2026-04-26 02:42 | -7.31844 | 113.03390 | 9831 ft | 291 kts | 54° |
| 2026-04-26 02:42 | -7.30614 | 113.05043 | 10300 ft | 303 kts | 54° |
| 2026-04-26 02:43 | -7.27849 | 113.08649 | 10565 ft | 347 kts | 47° |
| 2026-04-26 02:43 | -7.25975 | 113.10233 | 10956 ft | 358 kts | 34° |
| 2026-04-26 02:43 | -7.23742 | 113.11388 | 11501 ft | 365 kts | 22° |
| 2026-04-26 02:44 | -7.21275 | 113.12071 | 12072 ft | 370 kts | 14° |
| 2026-04-26 02:44 | -7.18754 | 113.12652 | 12660 ft | 373 kts | 14° |
| 2026-04-26 02:44 | -7.16211 | 113.13242 | 13244 ft | 377 kts | 15° |
| 2026-04-26 02:44 | -7.13647 | 113.13842 | 13820 ft | 380 kts | 15° |
| 2026-04-26 02:45 | -7.11057 | 113.14451 | 14316 ft | 384 kts | 15° |
| 2026-04-26 02:45 | -7.08445 | 113.15067 | 14821 ft | 387 kts | 15° |
| 2026-04-26 02:45 | -7.05815 | 113.15688 | 15316 ft | 390 kts | 15° |
| 2026-04-26 02:45 | -7.03162 | 113.16314 | 15811 ft | 393 kts | 15° |
| 2026-04-26 02:46 | -7.00496 | 113.16943 | 16290 ft | 396 kts | 15° |
| 2026-04-26 02:46 | -6.97798 | 113.17578 | 16760 ft | 399 kts | 15° |
| 2026-04-26 02:46 | -6.95086 | 113.18212 | 17215 ft | 402 kts | 14° |
| 2026-04-26 02:46 | -6.92346 | 113.18852 | 17674 ft | 405 kts | 15° |
| 2026-04-26 02:47 | -6.89599 | 113.19495 | 18117 ft | 408 kts | 14° |
| 2026-04-26 02:47 | -6.86854 | 113.20140 | 18494 ft | 410 kts | 15° |
| 2026-04-26 02:47 | -6.84030 | 113.20804 | 18870 ft | 413 kts | 15° |
| 2026-04-26 02:47 | -6.81224 | 113.21463 | 19252 ft | 415 kts | 15° |
| 2026-04-26 02:48 | -6.78441 | 113.22114 | 19638 ft | 417 kts | 15° |
| 2026-04-26 02:48 | -6.75613 | 113.22775 | 20003 ft | 419 kts | 15° |
| 2026-04-26 02:48 | -6.72759 | 113.23439 | 20375 ft | 421 kts | 15° |
| 2026-04-26 02:48 | -6.69897 | 113.24107 | 20726 ft | 423 kts | 15° |
| 2026-04-26 02:49 | -6.67019 | 113.24782 | 20886 ft | 424 kts | 15° |
| 2026-04-26 02:49 | -6.64145 | 113.25457 | 20909 ft | 424 kts | 15° |
| 2026-04-26 02:49 | -6.61269 | 113.26129 | 20910 ft | 424 kts | 15° |
| 2026-04-26 02:49 | -6.58403 | 113.26798 | 20906 ft | 424 kts | 15° |
| 2026-04-26 02:50 | -6.55528 | 113.27470 | 20908 ft | 424 kts | 15° |
| 2026-04-26 02:50 | -6.52654 | 113.28142 | 20905 ft | 424 kts | 15° |
| 2026-04-26 02:50 | -6.49778 | 113.28814 | 20932 ft | 425 kts | 15° |
| 2026-04-26 02:50 | -6.46896 | 113.29490 | 21303 ft | 427 kts | 15° |
| 2026-04-26 02:51 | -6.43993 | 113.30173 | 21670 ft | 429 kts | 15° |
| 2026-04-26 02:51 | -6.41076 | 113.30854 | 22021 ft | 431 kts | 15° |
| 2026-04-26 02:51 | -6.38191 | 113.31531 | 22365 ft | 433 kts | 15° |
| 2026-04-26 02:51 | -6.35252 | 113.32219 | 22707 ft | 435 kts | 15° |
| 2026-04-26 02:52 | -6.32278 | 113.32859 | 23041 ft | 438 kts | 9° |
| 2026-04-26 02:52 | -6.29219 | 113.32953 | 23351 ft | 443 kts | 356° |
| 2026-04-26 02:52 | -6.26186 | 113.32334 | 23629 ft | 448 kts | 342° |
| 2026-04-26 02:52 | -6.23358 | 113.31009 | 23880 ft | 452 kts | 329° |
| 2026-04-26 02:53 | -6.20888 | 113.29056 | 24142 ft | 456 kts | 315° |
| 2026-04-26 02:53 | -6.18848 | 113.26609 | 24397 ft | 458 kts | 308° |
| 2026-04-26 02:53 | -6.16890 | 113.24059 | 24661 ft | 460 kts | 308° |
| 2026-04-26 02:53 | -6.14937 | 113.21507 | 24932 ft | 461 kts | 308° |
| 2026-04-26 02:54 | -6.12986 | 113.18951 | 25188 ft | 462 kts | 308° |
| 2026-04-26 02:54 | -6.11046 | 113.16412 | 25437 ft | 464 kts | 308° |
| 2026-04-26 02:54 | -6.09070 | 113.13835 | 25701 ft | 465 kts | 309° |
| 2026-04-26 02:54 | -6.07085 | 113.11259 | 25960 ft | 467 kts | 309° |
| 2026-04-26 02:55 | -6.05096 | 113.08679 | 26228 ft | 468 kts | 309° |
| 2026-04-26 02:55 | -6.03095 | 113.06082 | 26483 ft | 470 kts | 309° |
| 2026-04-26 02:55 | -6.01098 | 113.03486 | 26733 ft | 471 kts | 309° |
| 2026-04-26 02:55 | -5.99094 | 113.00874 | 26985 ft | 473 kts | 309° |
| 2026-04-26 02:56 | -5.97081 | 112.98246 | 27234 ft | 474 kts | 309° |
| 2026-04-26 02:56 | -5.95074 | 112.95624 | 27468 ft | 475 kts | 309° |
| 2026-04-26 02:56 | -5.93047 | 112.92985 | 27700 ft | 477 kts | 309° |
| 2026-04-26 02:56 | -5.91015 | 112.90350 | 27925 ft | 478 kts | 309° |
| 2026-04-26 02:57 | -5.88974 | 112.87707 | 28153 ft | 479 kts | 309° |
| 2026-04-26 02:57 | -5.86926 | 112.85054 | 28381 ft | 481 kts | 309° |
| 2026-04-26 02:57 | -5.84877 | 112.82387 | 28616 ft | 482 kts | 309° |
| 2026-04-26 02:57 | -5.82826 | 112.79716 | 28815 ft | 484 kts | 309° |
| 2026-04-26 02:58 | -5.80771 | 112.77043 | 29035 ft | 485 kts | 309° |
| 2026-04-26 02:58 | -5.78700 | 112.74354 | 29261 ft | 486 kts | 309° |
| 2026-04-26 02:58 | -5.76631 | 112.71670 | 29591 ft | 485 kts | 309° |
| 2026-04-26 02:58 | -5.74571 | 112.68996 | 29925 ft | 484 kts | 309° |
| 2026-04-26 02:59 | -5.72509 | 112.66323 | 30205 ft | 483 kts | 309° |
| 2026-04-26 02:59 | -5.70454 | 112.63664 | 30453 ft | 483 kts | 309° |
| 2026-04-26 02:59 | -5.68392 | 112.60994 | 30702 ft | 482 kts | 309° |
| 2026-04-26 02:59 | -5.66370 | 112.58370 | 30937 ft | 482 kts | 309° |
| 2026-04-26 03:00 | -5.64324 | 112.55707 | 31175 ft | 482 kts | 309° |
| 2026-04-26 03:00 | -5.62244 | 112.53001 | 31421 ft | 482 kts | 309° |
| 2026-04-26 03:00 | -5.60192 | 112.50338 | 31675 ft | 482 kts | 309° |
| 2026-04-26 03:00 | -5.58163 | 112.47704 | 31913 ft | 482 kts | 309° |
| 2026-04-26 03:01 | -5.56112 | 112.45042 | 32163 ft | 482 kts | 309° |
| 2026-04-26 03:01 | -5.54060 | 112.42378 | 32414 ft | 482 kts | 309° |
| 2026-04-26 03:01 | -5.52009 | 112.39713 | 32664 ft | 482 kts | 309° |
| 2026-04-26 03:01 | -5.49956 | 112.37049 | 32909 ft | 481 kts | 309° |
| 2026-04-26 03:02 | -5.47902 | 112.34390 | 33161 ft | 481 kts | 309° |
| 2026-04-26 03:02 | -5.45855 | 112.31737 | 33425 ft | 481 kts | 309° |
| 2026-04-26 03:02 | -5.43800 | 112.29076 | 33679 ft | 481 kts | 309° |
| 2026-04-26 03:02 | -5.41752 | 112.26426 | 33861 ft | 481 kts | 310° |
| 2026-04-26 03:03 | -5.37648 | 112.21108 | 33908 ft | 482 kts | 310° |
| 2026-04-26 03:03 | -5.33565 | 112.15829 | 33907 ft | 481 kts | 310° |
| 2026-04-26 03:04 | -5.29456 | 112.10518 | 33902 ft | 481 kts | 310° |
| 2026-04-26 03:04 | -5.25357 | 112.05209 | 33905 ft | 480 kts | 310° |
| 2026-04-26 03:05 | -5.21265 | 111.99905 | 33903 ft | 480 kts | 310° |
| 2026-04-26 03:05 | -5.17172 | 111.94612 | 33905 ft | 480 kts | 310° |
| 2026-04-26 03:06 | -5.13108 | 111.89352 | 33906 ft | 480 kts | 310° |
| 2026-04-26 03:06 | -5.09021 | 111.84057 | 33905 ft | 480 kts | 310° |
| 2026-04-26 03:07 | -5.04931 | 111.78762 | 33904 ft | 479 kts | 310° |
| 2026-04-26 03:07 | -5.00840 | 111.73481 | 33905 ft | 479 kts | 310° |
| 2026-04-26 03:08 | -4.96752 | 111.68203 | 33903 ft | 479 kts | 310° |
| 2026-04-26 03:08 | -4.92663 | 111.62916 | 33903 ft | 479 kts | 310° |
| 2026-04-26 03:09 | -4.88586 | 111.57647 | 33905 ft | 479 kts | 310° |
| 2026-04-26 03:09 | -4.85183 | 111.53250 | 33902 ft | 479 kts | 310° |
| 2026-04-26 03:10 | -4.80431 | 111.47114 | 33902 ft | 479 kts | 310° |
| 2026-04-26 03:10 | -4.76337 | 111.41846 | 33901 ft | 479 kts | 310° |
| 2026-04-26 03:11 | -4.72239 | 111.36567 | 33899 ft | 479 kts | 310° |
| 2026-04-26 03:11 | -4.68156 | 111.31281 | 33901 ft | 479 kts | 310° |
| 2026-04-26 03:12 | -4.64079 | 111.26002 | 33905 ft | 478 kts | 310° |
| 2026-04-26 03:12 | -4.59996 | 111.20739 | 33910 ft | 478 kts | 310° |
| 2026-04-26 03:13 | -4.55925 | 111.15456 | 33914 ft | 478 kts | 309° |
| 2026-04-26 03:13 | -4.51891 | 111.10204 | 33913 ft | 478 kts | 309° |
| 2026-04-26 03:14 | -4.47821 | 111.04922 | 33917 ft | 477 kts | 309° |
| 2026-04-26 03:14 | -4.43758 | 110.99659 | 33912 ft | 477 kts | 309° |
| 2026-04-26 03:15 | -4.39694 | 110.94395 | 33912 ft | 477 kts | 309° |
| 2026-04-26 03:15 | -4.35643 | 110.89137 | 33910 ft | 477 kts | 309° |
| 2026-04-26 03:16 | -4.31591 | 110.83871 | 33908 ft | 476 kts | 309° |
| 2026-04-26 03:16 | -4.27536 | 110.78619 | 33912 ft | 476 kts | 309° |
| 2026-04-26 03:17 | -4.23502 | 110.73395 | 33907 ft | 476 kts | 309° |
| 2026-04-26 03:17 | -4.19450 | 110.68145 | 33902 ft | 476 kts | 309° |
| 2026-04-26 03:18 | -4.16061 | 110.63752 | 33896 ft | 476 kts | 309° |
| 2026-04-26 03:18 | -4.12038 | 110.58530 | 33894 ft | 476 kts | 309° |
| 2026-04-26 03:19 | -4.07305 | 110.52392 | 33890 ft | 476 kts | 309° |
| 2026-04-26 03:19 | -4.03929 | 110.48030 | 33890 ft | 476 kts | 309° |
| 2026-04-26 03:20 | -3.99873 | 110.42786 | 33895 ft | 476 kts | 309° |
| 2026-04-26 03:20 | -3.95816 | 110.37540 | 33899 ft | 476 kts | 310° |
| 2026-04-26 03:21 | -3.91571 | 110.32457 | 33906 ft | 475 kts | 313° |
| 2026-04-26 03:21 | -3.87200 | 110.27508 | 33907 ft | 474 kts | 313° |
| 2026-04-26 03:22 | -3.82852 | 110.22539 | 33909 ft | 474 kts | 312° |
| 2026-04-26 03:22 | -3.78552 | 110.17521 | 33910 ft | 474 kts | 312° |
| 2026-04-26 03:23 | -3.74269 | 110.12501 | 33913 ft | 474 kts | 312° |
| 2026-04-26 03:23 | -3.70009 | 110.07522 | 33914 ft | 473 kts | 312° |
| 2026-04-26 03:24 | -3.65721 | 110.02533 | 33914 ft | 473 kts | 312° |
| 2026-04-26 03:24 | -3.61430 | 109.97547 | 33911 ft | 472 kts | 312° |
| 2026-04-26 03:25 | -3.57144 | 109.92567 | 33910 ft | 472 kts | 311° |
| 2026-04-26 03:25 | -3.52866 | 109.87587 | 33902 ft | 472 kts | 311° |
| 2026-04-26 03:26 | -3.48588 | 109.82599 | 33899 ft | 472 kts | 311° |
| 2026-04-26 03:26 | -3.44304 | 109.77612 | 33894 ft | 472 kts | 311° |
| 2026-04-26 03:27 | -3.40029 | 109.72628 | 33890 ft | 472 kts | 311° |
| 2026-04-26 03:27 | -3.35734 | 109.67640 | 33892 ft | 473 kts | 311° |
| 2026-04-26 03:28 | -3.31442 | 109.62653 | 33890 ft | 473 kts | 311° |
| 2026-04-26 03:28 | -3.27142 | 109.57649 | 33889 ft | 474 kts | 311° |
| 2026-04-26 03:29 | -3.22868 | 109.52672 | 33891 ft | 474 kts | 311° |
| 2026-04-26 03:29 | -3.18557 | 109.47665 | 33897 ft | 475 kts | 311° |
| 2026-04-26 03:30 | -3.14247 | 109.42653 | 33896 ft | 475 kts | 311° |
| 2026-04-26 03:30 | -3.09928 | 109.37643 | 33903 ft | 475 kts | 311° |
| 2026-04-26 03:31 | -3.05612 | 109.32632 | 33906 ft | 475 kts | 311° |
| 2026-04-26 03:31 | -3.01298 | 109.27611 | 33907 ft | 476 kts | 311° |
| 2026-04-26 03:32 | -2.96982 | 109.22597 | 33907 ft | 476 kts | 311° |
| 2026-04-26 03:32 | -2.92673 | 109.17598 | 33909 ft | 476 kts | 311° |
| 2026-04-26 03:33 | -2.88345 | 109.12567 | 33912 ft | 477 kts | 311° |
| 2026-04-26 03:33 | -2.84012 | 109.07541 | 33912 ft | 477 kts | 311° |
| 2026-04-26 03:34 | -2.79670 | 109.02525 | 33912 ft | 477 kts | 311° |
| 2026-04-26 03:34 | -2.75317 | 108.97495 | 33915 ft | 477 kts | 311° |
| 2026-04-26 03:35 | -2.70998 | 108.92504 | 33917 ft | 477 kts | 311° |
| 2026-04-26 03:35 | -2.66647 | 108.87474 | 33922 ft | 477 kts | 311° |
| 2026-04-26 03:36 | -2.62304 | 108.82448 | 33925 ft | 477 kts | 311° |
| 2026-04-26 03:36 | -2.57957 | 108.77423 | 33925 ft | 477 kts | 311° |
| 2026-04-26 03:37 | -2.53611 | 108.72394 | 33926 ft | 477 kts | 311° |
| 2026-04-26 03:37 | -2.49300 | 108.67417 | 33928 ft | 476 kts | 311° |
| 2026-04-26 03:38 | -2.44956 | 108.62399 | 33922 ft | 476 kts | 311° |
| 2026-04-26 03:38 | -2.40628 | 108.57379 | 33920 ft | 476 kts | 311° |
| 2026-04-26 03:39 | -2.36304 | 108.52356 | 33921 ft | 476 kts | 311° |
| 2026-04-26 03:39 | -2.31979 | 108.47333 | 33922 ft | 476 kts | 311° |
| 2026-04-26 03:40 | -2.27651 | 108.42315 | 33919 ft | 476 kts | 311° |
| 2026-04-26 03:40 | -2.23343 | 108.37323 | 33917 ft | 476 kts | 311° |
| 2026-04-26 03:41 | -2.19025 | 108.32309 | 33916 ft | 476 kts | 311° |
| 2026-04-26 03:41 | -2.14703 | 108.27297 | 33914 ft | 476 kts | 311° |
| 2026-04-26 03:42 | -2.10389 | 108.22296 | 33913 ft | 476 kts | 311° |
| 2026-04-26 03:42 | -2.06054 | 108.17282 | 33911 ft | 476 kts | 311° |
| 2026-04-26 03:43 | -2.01734 | 108.12272 | 33910 ft | 475 kts | 311° |
| 2026-04-26 03:43 | -1.97409 | 108.07263 | 33908 ft | 475 kts | 311° |
| 2026-04-26 03:44 | -1.93090 | 108.02256 | 33906 ft | 476 kts | 311° |
| 2026-04-26 03:44 | -1.88796 | 107.97267 | 33903 ft | 476 kts | 311° |
| 2026-04-26 03:45 | -1.84478 | 107.92250 | 33902 ft | 476 kts | 311° |
| 2026-04-26 03:45 | -1.80149 | 107.87237 | 33893 ft | 476 kts | 311° |
| 2026-04-26 03:46 | -1.75822 | 107.82225 | 33890 ft | 476 kts | 311° |
| 2026-04-26 03:47 | -1.69327 | 107.74696 | 33890 ft | 477 kts | 311° |
| 2026-04-26 03:47 | -1.64988 | 107.69667 | 33889 ft | 477 kts | 311° |
| 2026-04-26 03:48 | -1.60652 | 107.64643 | 33884 ft | 478 kts | 311° |
| 2026-04-26 03:48 | -1.56311 | 107.59613 | 33890 ft | 478 kts | 311° |
| 2026-04-26 03:49 | -1.51971 | 107.54586 | 33892 ft | 477 kts | 311° |
| 2026-04-26 03:49 | -1.47629 | 107.49567 | 33894 ft | 477 kts | 311° |
| 2026-04-26 03:50 | -1.43300 | 107.44546 | 33898 ft | 476 kts | 311° |
| 2026-04-26 03:50 | -1.38982 | 107.39529 | 33897 ft | 476 kts | 311° |
| 2026-04-26 03:51 | -1.34676 | 107.34565 | 33890 ft | 476 kts | 311° |
| 2026-04-26 03:51 | -1.30288 | 107.29615 | 33889 ft | 476 kts | 312° |
| 2026-04-26 03:52 | -1.25879 | 107.24674 | 33887 ft | 476 kts | 312° |
| 2026-04-26 03:52 | -1.21477 | 107.19725 | 33888 ft | 477 kts | 312° |
| 2026-04-26 03:53 | -1.17072 | 107.14766 | 33892 ft | 477 kts | 312° |
| 2026-04-26 03:53 | -1.12674 | 107.09804 | 33899 ft | 476 kts | 312° |
| 2026-04-26 03:54 | -1.08277 | 107.04849 | 33910 ft | 476 kts | 311° |
| 2026-04-26 03:54 | -1.03896 | 106.99908 | 33914 ft | 475 kts | 311° |
| 2026-04-26 03:55 | -0.99514 | 106.94961 | 33917 ft | 474 kts | 311° |
| 2026-04-26 03:55 | -0.95174 | 106.90066 | 33915 ft | 473 kts | 311° |
| 2026-04-26 03:56 | -0.90780 | 106.85107 | 33918 ft | 473 kts | 311° |
| 2026-04-26 03:56 | -0.86446 | 106.80219 | 33916 ft | 473 kts | 311° |
| 2026-04-26 03:57 | -0.82075 | 106.75301 | 33917 ft | 473 kts | 311° |
| 2026-04-26 03:57 | -0.77707 | 106.70384 | 33908 ft | 473 kts | 311° |
| 2026-04-26 03:58 | -0.73338 | 106.65459 | 33900 ft | 473 kts | 311° |
| 2026-04-26 03:58 | -0.68972 | 106.60531 | 33896 ft | 474 kts | 311° |
| 2026-04-26 03:59 | -0.64594 | 106.55590 | 33893 ft | 475 kts | 311° |
| 2026-04-26 03:59 | -0.60066 | 106.50840 | 33891 ft | 475 kts | 319° |
| 2026-04-26 04:00 | -0.55115 | 106.46450 | 33896 ft | 476 kts | 319° |
| 2026-04-26 04:00 | -0.50155 | 106.42045 | 33902 ft | 477 kts | 319° |
| 2026-04-26 04:01 | -0.45192 | 106.37635 | 33904 ft | 477 kts | 319° |
| 2026-04-26 04:01 | -0.40268 | 106.33258 | 33907 ft | 477 kts | 319° |
| 2026-04-26 04:02 | -0.35312 | 106.28854 | 33910 ft | 476 kts | 319° |
| 2026-04-26 04:02 | -0.30338 | 106.24434 | 33907 ft | 476 kts | 319° |
| 2026-04-26 04:03 | -0.25422 | 106.20067 | 33906 ft | 476 kts | 319° |
| 2026-04-26 04:03 | -0.20474 | 106.15668 | 33913 ft | 475 kts | 319° |
| 2026-04-26 04:04 | -0.15544 | 106.11291 | 33909 ft | 475 kts | 319° |
| 2026-04-26 04:04 | -0.10606 | 106.06903 | 33913 ft | 475 kts | 319° |
| 2026-04-26 04:05 | -0.06503 | 106.03257 | 33916 ft | 474 kts | 319° |
| 2026-04-26 04:05 | -0.00734 | 105.98136 | 33909 ft | 474 kts | 319° |
| 2026-04-26 04:06 | 0.03369 | 105.94496 | 33908 ft | 474 kts | 319° |
| 2026-04-26 04:06 | 0.08293 | 105.90115 | 33908 ft | 474 kts | 319° |
| 2026-04-26 04:07 | 0.13213 | 105.85739 | 33903 ft | 474 kts | 319° |
| 2026-04-26 04:07 | 0.18152 | 105.81355 | 33896 ft | 474 kts | 319° |
| 2026-04-26 04:08 | 0.23091 | 105.76972 | 33892 ft | 475 kts | 319° |
| 2026-04-26 04:08 | 0.27991 | 105.72622 | 33890 ft | 475 kts | 319° |
| 2026-04-26 04:09 | 0.32933 | 105.68231 | 33890 ft | 475 kts | 319° |
| 2026-04-26 04:09 | 0.37877 | 105.63830 | 33879 ft | 476 kts | 319° |
| 2026-04-26 04:09 | 0.40359 | 105.61621 | 33025 ft | 482 kts | 319° |
| 2026-04-26 04:10 | 0.42890 | 105.59372 | 31838 ft | 491 kts | 319° |
| 2026-04-26 04:10 | 0.45461 | 105.57088 | 30840 ft | 497 kts | 320° |
| 2026-04-26 04:10 | 0.48047 | 105.54792 | 29915 ft | 499 kts | 320° |
| 2026-04-26 04:10 | 0.50648 | 105.52485 | 28945 ft | 499 kts | 320° |
| 2026-04-26 04:11 | 0.53239 | 105.50187 | 28087 ft | 497 kts | 320° |
| 2026-04-26 04:11 | 0.55823 | 105.47892 | 27257 ft | 494 kts | 320° |
| 2026-04-26 04:11 | 0.58374 | 105.45619 | 26523 ft | 490 kts | 320° |
| 2026-04-26 04:11 | 0.60847 | 105.43292 | 25817 ft | 486 kts | 313° |
| 2026-04-26 04:12 | 0.62884 | 105.40614 | 25132 ft | 483 kts | 302° |
| 2026-04-26 04:12 | 0.64378 | 105.37619 | 24463 ft | 480 kts | 291° |
| 2026-04-26 04:12 | 0.65306 | 105.34432 | 23813 ft | 477 kts | 284° |
| 2026-04-26 04:12 | 0.66089 | 105.31226 | 23115 ft | 474 kts | 284° |
| 2026-04-26 04:13 | 0.66871 | 105.28036 | 22420 ft | 469 kts | 284° |
| 2026-04-26 04:13 | 0.67650 | 105.24891 | 21767 ft | 465 kts | 284° |
| 2026-04-26 04:13 | 0.68424 | 105.21774 | 21143 ft | 460 kts | 284° |
| 2026-04-26 04:13 | 0.69188 | 105.18689 | 20538 ft | 456 kts | 284° |
| 2026-04-26 04:14 | 0.69935 | 105.15660 | 19953 ft | 452 kts | 284° |
| 2026-04-26 04:14 | 0.70694 | 105.12581 | 19363 ft | 448 kts | 284° |
| 2026-04-26 04:14 | 0.71431 | 105.09582 | 18798 ft | 444 kts | 284° |
| 2026-04-26 04:14 | 0.72151 | 105.06655 | 17876 ft | 435 kts | 284° |
| 2026-04-26 04:15 | 0.72862 | 105.03767 | 17245 ft | 418 kts | 284° |
| 2026-04-26 04:15 | 0.73544 | 105.01000 | 16751 ft | 404 kts | 284° |
| 2026-04-26 04:15 | 0.74214 | 104.98279 | 16203 ft | 403 kts | 284° |
| 2026-04-26 04:15 | 0.74614 | 104.95520 | 15675 ft | 402 kts | 270° |
| 2026-04-26 04:16 | 0.74260 | 104.92758 | 15111 ft | 401 kts | 253° |
| 2026-04-26 04:16 | 0.73146 | 104.90224 | 14689 ft | 396 kts | 236° |
| 2026-04-26 04:16 | 0.71412 | 104.88113 | 14513 ft | 391 kts | 221° |
| 2026-04-26 04:16 | 0.69256 | 104.86473 | 14273 ft | 388 kts | 213° |
| 2026-04-26 04:17 | 0.67034 | 104.84947 | 14043 ft | 387 kts | 212° |
| 2026-04-26 04:17 | 0.64810 | 104.83432 | 13802 ft | 385 kts | 212° |
| 2026-04-26 04:17 | 0.62679 | 104.81826 | 13546 ft | 385 kts | 221° |
| 2026-04-26 04:17 | 0.60944 | 104.79790 | 13313 ft | 385 kts | 236° |
| 2026-04-26 04:18 | 0.59731 | 104.77410 | 13087 ft | 385 kts | 250° |
| 2026-04-26 04:18 | 0.59110 | 104.74853 | 12929 ft | 384 kts | 263° |
| 2026-04-26 04:18 | 0.58907 | 104.72190 | 12736 ft | 384 kts | 266° |
| 2026-04-26 04:18 | 0.58727 | 104.69529 | 12510 ft | 382 kts | 266° |
| 2026-04-26 04:19 | 0.58544 | 104.66883 | 12286 ft | 381 kts | 266° |
| 2026-04-26 04:19 | 0.58358 | 104.64249 | 12066 ft | 380 kts | 266° |
| 2026-04-26 04:19 | 0.58172 | 104.61624 | 11847 ft | 375 kts | 266° |
| 2026-04-26 04:19 | 0.57993 | 104.59067 | 11713 ft | 362 kts | 266° |
| 2026-04-26 04:20 | 0.57820 | 104.56610 | 11589 ft | 349 kts | 266° |
| 2026-04-26 04:20 | 0.57651 | 104.54225 | 11472 ft | 338 kts | 266° |
| 2026-04-26 04:20 | 0.57489 | 104.51927 | 11345 ft | 327 kts | 266° |
| 2026-04-26 04:20 | 0.57333 | 104.49682 | 11102 ft | 322 kts | 266° |
| 2026-04-26 04:21 | 0.57180 | 104.47462 | 10796 ft | 319 kts | 266° |
| 2026-04-26 04:21 | 0.57026 | 104.45255 | 10461 ft | 316 kts | 266° |
| 2026-04-26 04:21 | 0.56874 | 104.43080 | 9900 ft | 312 kts | 266° |
| 2026-04-26 04:21 | 0.56725 | 104.40933 | 9442 ft | 307 kts | 266° |
| 2026-04-26 04:22 | 0.56727 | 104.38812 | 9254 ft | 306 kts | 280° |
| 2026-04-26 04:22 | 0.57416 | 104.36825 | 9051 ft | 302 kts | 302° |
| 2026-04-26 04:22 | 0.58677 | 104.35203 | 8695 ft | 299 kts | 313° |
| 2026-04-26 04:22 | 0.60035 | 104.33643 | 8308 ft | 297 kts | 313° |
| 2026-04-26 04:23 | 0.61389 | 104.32084 | 7919 ft | 296 kts | 313° |
| 2026-04-26 04:23 | 0.62736 | 104.30531 | 7523 ft | 293 kts | 313° |
| 2026-04-26 04:23 | 0.64054 | 104.29002 | 7156 ft | 290 kts | 313° |
| 2026-04-26 04:23 | 0.65363 | 104.27483 | 6783 ft | 287 kts | 313° |
| 2026-04-26 04:24 | 0.66675 | 104.25961 | 6411 ft | 288 kts | 313° |
| 2026-04-26 04:24 | 0.67984 | 104.24443 | 6013 ft | 287 kts | 313° |
| 2026-04-26 04:24 | 0.69279 | 104.22940 | 5633 ft | 285 kts | 313° |
| 2026-04-26 04:24 | 0.70571 | 104.21444 | 5266 ft | 283 kts | 313° |
| 2026-04-26 04:25 | 0.71850 | 104.19965 | 4890 ft | 280 kts | 313° |
| 2026-04-26 04:25 | 0.73119 | 104.18496 | 4531 ft | 278 kts | 313° |
| 2026-04-26 04:25 | 0.74372 | 104.17046 | 4165 ft | 275 kts | 313° |
| 2026-04-26 04:25 | 0.75612 | 104.15608 | 3804 ft | 272 kts | 313° |
| 2026-04-26 04:26 | 0.76839 | 104.14182 | 3448 ft | 269 kts | 313° |
| 2026-04-26 04:26 | 0.78068 | 104.12775 | 3097 ft | 267 kts | 316° |
| 2026-04-26 04:26 | 0.79500 | 104.11640 | 2888 ft | 261 kts | 328° |
| 2026-04-26 04:26 | 0.81022 | 104.10634 | 2830 ft | 263 kts | 328° |
| 2026-04-26 04:27 | 0.82542 | 104.09614 | 2773 ft | 263 kts | 328° |
| 2026-04-26 04:27 | 0.84040 | 104.08601 | 2719 ft | 263 kts | 328° |
| 2026-04-26 04:27 | 0.85571 | 104.07565 | 2662 ft | 263 kts | 327° |
| 2026-04-26 04:27 | 0.87065 | 104.06555 | 2605 ft | 263 kts | 327° |
| 2026-04-26 04:28 | 0.88583 | 104.05532 | 2554 ft | 262 kts | 327° |
| 2026-04-26 04:28 | 0.90091 | 104.04518 | 2493 ft | 262 kts | 327° |
| 2026-04-26 04:28 | 0.91603 | 104.03505 | 2439 ft | 262 kts | 328° |
| 2026-04-26 04:28 | 0.93105 | 104.02498 | 2387 ft | 255 kts | 327° |
| 2026-04-26 04:29 | 0.94535 | 104.01538 | 2326 ft | 240 kts | 327° |
| 2026-04-26 04:29 | 0.95884 | 104.00629 | 2273 ft | 229 kts | 327° |
| 2026-04-26 04:29 | 0.97273 | 103.99987 | 2212 ft | 214 kts | 354° |
| 2026-04-26 04:29 | 0.98682 | 104.00185 | 2166 ft | 202 kts | 28° |
| 2026-04-26 04:30 | 0.99751 | 104.00995 | 2144 ft | 185 kts | 41° |
| 2026-04-26 04:30 | 1.00672 | 104.01810 | 2071 ft | 168 kts | 42° |
| 2026-04-26 04:30 | 1.01505 | 104.02545 | 1996 ft | 154 kts | 41° |
| 2026-04-26 04:30 | 1.02296 | 104.03244 | 1914 ft | 150 kts | 40° |
| 2026-04-26 04:31 | 1.03074 | 104.03930 | 1835 ft | 148 kts | 41° |
| 2026-04-26 04:31 | 1.03857 | 104.04616 | 1788 ft | 150 kts | 40° |
| 2026-04-26 04:31 | 1.04640 | 104.05304 | 1661 ft | 149 kts | 41° |
| 2026-04-26 04:31 | 1.05412 | 104.05984 | 1488 ft | 148 kts | 41° |
| 2026-04-26 04:32 | 1.06182 | 104.06662 | 1310 ft | 147 kts | 42° |
| 2026-04-26 04:32 | 1.06936 | 104.07328 | 1122 ft | 147 kts | 41° |
| 2026-04-26 04:32 | 1.07710 | 104.08010 | 935 ft | 146 kts | 40° |
| 2026-04-26 04:32 | 1.08459 | 104.08675 | 739 ft | 146 kts | 42° |
| 2026-04-26 04:33 | 1.09218 | 104.09346 | 539 ft | 144 kts | 41° |
| 2026-04-26 04:33 | 1.09971 | 104.10005 | 365 ft | 144 kts | 40° |
| 2026-04-26 04:33 | 1.10721 | 104.10665 | 198 ft | 143 kts | 40° |
| 2026-04-26 04:33 | 1.11432 | 104.11291 | 140 ft | 126 kts | 41° |
| 2026-04-26 04:34 | 1.11979 | 104.11777 | 136 ft | 81 kts | 41° |
| 2026-04-26 04:34 | 1.12273 | 104.12035 | 137 ft | 36 kts | 41° |
| 2026-04-26 04:34 | 1.12464 | 104.12180 | 137 ft | 33 kts | 26° |
| 2026-04-26 04:34 | 1.12653 | 104.12240 | 136 ft | 18 kts | 12° |
| 2026-04-26 04:35 | 1.12712 | 104.12243 | 136 ft | 7 kts | 334° |
| 2026-04-26 04:35 | 1.12714 | 104.12209 | 137 ft | 4 kts | 227° |
| 2026-04-26 04:35 | 1.12691 | 104.12197 | 137 ft | 3 kts | 210° |
| 2026-04-26 04:35 | 1.12678 | 104.12186 | 137 ft | 2 kts | 227° |
| 2026-04-26 04:36 | 1.12674 | 104.12181 | 137 ft | 1 kts | 231° |
| 2026-04-26 04:36 | 1.12651 | 104.12150 | 137 ft | 11 kts | 229° |
| 2026-04-26 04:36 | 1.12572 | 104.12077 | 137 ft | 16 kts | 221° |
| 2026-04-26 04:36 | 1.12495 | 104.12009 | 137 ft | 14 kts | 221° |
| 2026-04-26 04:37 | 1.12424 | 104.11947 | 137 ft | 13 kts | 221° |
| 2026-04-26 04:37 | 1.12360 | 104.11891 | 138 ft | 12 kts | 221° |
| 2026-04-26 04:37 | 1.12326 | 104.11831 | 137 ft | 10 kts | 298° |
| 2026-04-26 04:37 | 1.12347 | 104.11782 | 137 ft | 7 kts | 239° |
| 2026-04-26 04:38 | 1.12314 | 104.11751 | 137 ft | 6 kts | 220° |
| 2026-04-26 04:38 | 1.12277 | 104.11721 | 137 ft | 8 kts | 221° |
| 2026-04-26 04:38 | 1.12240 | 104.11688 | 137 ft | 7 kts | 221° |
| 2026-04-26 04:38 | 1.12207 | 104.11659 | 137 ft | 6 kts | 221° |
| 2026-04-26 04:39 | 1.12178 | 104.11633 | 137 ft | 5 kts | 221° |
| 2026-04-26 04:39 | 1.12169 | 104.11606 | 137 ft | 4 kts | 291° |
| 2026-04-26 04:39 | 1.12191 | 104.11580 | 137 ft | 6 kts | 313° |
| 2026-04-26 04:39 | 1.12213 | 104.11555 | 137 ft | 0 kts | 311° |